Darstellungsparameter: Aktuell verwendete Einstellungen:
Skalierung der Graphiken ... ?
xyx+y,   Skalierungsfaktor:      Skalierung: Modus: x, Faktor: 1
Darstellungszeitraum ... ?
Vom - - bis: - -   Zeitraum: 22.05.2022 - 22.05.2022
Min/Max/Avg-Anzeige ... ?
Zeige MMA aktuell
Zeige MMA Monat
Zeige MMA alles
Zeige --A aktuell
Zeige --A Monat
Zeige --A alles
Keine MMA-Anzeige
MMA:
Minimum Maximum Average (ber die Originaldaten)
MMA-Basis: 14.04.2020 - 16.05.2020
Quicknavigation für Darstellung... ?
Tage:      1T, 2T, 3T, 5T -1T -2T -3T -5T +1T +2T +3T +5T
Wochen: 1W, 2W, 3W -1W -2W -3W +1W +2W +3W
Monate: 1M, 3M, 6M -1M -3M -6M +1M +3M +6M
Jahre:    1J, 3J, 5J, 10J -1J -3J -5J -10J +1J +3J +5J +10J
Nutze für die Darstellung ... ?
Originaldaten oder Mittelwerte auf ...
Stundenbasis Tagesbasis Wochenbasis
Monatsbasis Jahresbasis      Datenbasis: Original-Daten
Darstellen als:
Statistik (Auto) Statistik J:M      Darstellung:

Der gewünschte Datumsbereich war nicht gültig/verfügbar und wurde korrigiert....
Das angegebene Enddatum (22.06.2023 23:59:59) liegt in der Zukunft.
Das angegebene Startdatum (02.06.2023 00:00:00) liegt in der Zukunft.


Zur Graphik,    zurück zur Übersicht aller Sensoren.
 
Tabellarische Datenbersicht: ?
 
Sensor: Nr:Datum:Temp:Abs-Feuchte:Windchill:Wind:
Aussen-T/F 1 22-05-2022 02:00:00 10.7 C 9.13 g/m*3 10.7 C 0 km/h
2 22-05-2022 02:05:00 10.8 C 9.19 g/m*3 10.8 C 0 km/h
3 22-05-2022 02:10:00 10.8 C 9.19 g/m*3 10.8 C 0 km/h
4 22-05-2022 02:15:00 10.8 C 9.19 g/m*3 10.8 C 0 km/h
5 22-05-2022 02:20:00 10.7 C 9.13 g/m*3 10.7 C 0 km/h
6 22-05-2022 02:25:00 10.6 C 9.08 g/m*3 10.6 C 0 km/h
7 22-05-2022 02:30:00 10.6 C 9.08 g/m*3 10.6 C 0 km/h
8 22-05-2022 02:35:00 10.5 C 9.02 g/m*3 10.5 C 0 km/h
9 22-05-2022 02:40:00 10.4 C 8.96 g/m*3 10.4 C 0 km/h
10 22-05-2022 02:45:00 10.3 C 8.91 g/m*3 10.3 C 0 km/h
11 22-05-2022 02:50:00 10.3 C 8.91 g/m*3 10.3 C 0 km/h
12 22-05-2022 02:55:00 10.2 C 8.85 g/m*3 10.2 C 0 km/h
13 22-05-2022 03:00:00 10.2 C 8.85 g/m*3 10.2 C 1.6 km/h
14 22-05-2022 03:05:00 10.1 C 8.79 g/m*3 10.1 C 1.6 km/h
15 22-05-2022 03:10:00 10.1 C 8.79 g/m*3 10.1 C 0 km/h
16 22-05-2022 03:15:00 10.1 C 8.79 g/m*3 10.1 C 0 km/h
17 22-05-2022 03:20:00 10.1 C 8.79 g/m*3 10.1 C 3.2 km/h
18 22-05-2022 03:25:00 10.2 C 8.95 g/m*3 10.2 C 1.6 km/h
19 22-05-2022 03:30:00 10.2 C 8.95 g/m*3 10.2 C 0 km/h
20 22-05-2022 03:35:00 10.3 C 9 g/m*3 10.3 C 0 km/h
21 22-05-2022 03:40:00 10.3 C 9 g/m*3 10.3 C 0 km/h
22 22-05-2022 03:45:00 10.2 C 8.95 g/m*3 10.2 C 0 km/h
23 22-05-2022 03:50:00 10.2 C 8.95 g/m*3 10.2 C 0 km/h
24 22-05-2022 03:55:00 10.1 C 8.89 g/m*3 10.1 C 0 km/h
25 22-05-2022 04:00:00 10.1 C 8.89 g/m*3 10.1 C 1.6 km/h
Sensor: Nr:Datum:Temp:Abs-Feuchte:Windchill:Wind:
Aussen-T/F 26 22-05-2022 04:05:00 9.9 C 8.68 g/m*3 9.9 C 0 km/h
27 22-05-2022 04:10:00 9.8 C 8.63 g/m*3 9.8 C 0 km/h
28 22-05-2022 04:15:00 9.8 C 8.63 g/m*3 9.8 C 0 km/h
29 22-05-2022 04:20:00 9.7 C 8.67 g/m*3 9.7 C 0 km/h
30 22-05-2022 04:25:00 9.7 C 8.57 g/m*3 9.7 C 0 km/h
31 22-05-2022 04:30:00 9.7 C 8.67 g/m*3 9.7 C 0 km/h
32 22-05-2022 04:35:00 9.6 C 8.52 g/m*3 9.6 C 0 km/h
33 22-05-2022 04:40:00 9.5 C 8.56 g/m*3 9.5 C 0 km/h
34 22-05-2022 04:45:00 9.4 C 8.5 g/m*3 9.4 C 0 km/h
35 22-05-2022 04:50:00 9.3 C 8.45 g/m*3 9.3 C 0 km/h
36 22-05-2022 04:55:00 9.3 C 8.45 g/m*3 9.3 C 0 km/h
37 22-05-2022 05:00:00 9.2 C 8.39 g/m*3 9.2 C 0 km/h
38 22-05-2022 05:05:00 9.2 C 8.39 g/m*3 9.2 C 0 km/h
39 22-05-2022 05:10:00 9.1 C 8.34 g/m*3 9.1 C 0 km/h
40 22-05-2022 05:15:00 9.1 C 8.34 g/m*3 9.1 C 0 km/h
41 22-05-2022 05:20:00 9 C 8.29 g/m*3 9 C 0 km/h
42 22-05-2022 05:25:00 8.9 C 8.23 g/m*3 8.9 C 0 km/h
43 22-05-2022 05:30:00 8.9 C 8.23 g/m*3 8.9 C 1.6 km/h
44 22-05-2022 05:35:00 8.9 C 8.23 g/m*3 8.9 C 0 km/h
45 22-05-2022 05:40:00 8.9 C 8.23 g/m*3 8.9 C 0 km/h
46 22-05-2022 05:45:00 8.9 C 8.23 g/m*3 8.9 C 0 km/h
47 22-05-2022 05:50:00 8.9 C 8.23 g/m*3 8.9 C 0 km/h
48 22-05-2022 05:55:00 8.9 C 8.32 g/m*3 8.9 C 0 km/h
49 22-05-2022 06:00:00 8.8 C 8.27 g/m*3 8.8 C 0 km/h
50 22-05-2022 06:05:00 8.9 C 8.32 g/m*3 8.9 C 0 km/h
Sensor: Nr:Datum:Temp:Abs-Feuchte:Windchill:Wind:
Aussen-T/F 51 22-05-2022 06:10:00 8.9 C 8.32 g/m*3 8.9 C 0 km/h
52 22-05-2022 06:15:00 9.1 C 8.43 g/m*3 9.1 C 0 km/h
53 22-05-2022 06:20:00 9.2 C 8.48 g/m*3 9.2 C 0 km/h
54 22-05-2022 06:25:00 9.2 C 8.48 g/m*3 9.2 C 0 km/h
55 22-05-2022 06:30:00 9.2 C 8.48 g/m*3 9.2 C 0 km/h
56 22-05-2022 06:35:00 9.2 C 8.48 g/m*3 9.2 C 0 km/h
57 22-05-2022 06:40:00 9.1 C 8.43 g/m*3 9.1 C 1.6 km/h
58 22-05-2022 06:45:00 9.1 C 8.43 g/m*3 9.1 C 0 km/h
59 22-05-2022 06:50:00 9.1 C 8.43 g/m*3 9.1 C 0 km/h
60 22-05-2022 06:55:00 9.1 C 8.43 g/m*3 9.1 C 0 km/h
61 22-05-2022 07:00:00 9.1 C 8.43 g/m*3 9.1 C 0 km/h
62 22-05-2022 07:05:00 9.2 C 8.48 g/m*3 9.2 C 0 km/h

Legende:
   Min
   Max


Maximal/Minimal-Werte vom 14.04.2020 - 16.05.2020

Sensor Min Max Avg
Temp
(Aussen-T/F)
-0.1 °C
15-04-2020  06:55:00
26.2 °C
17-04-2020  18:05:00
11.98 °C

Die Daten stammen von einer Davis Vantage Pro 2 Wetter-Station und werden unter Linux mit der Software wview2wettercgi und aufbereitet. Alle Angaben erfolgen ohne Gewähr für ihre Vollständigkeit oder Richtigkeit.
Kontakt: Rainer Krienke krienke@uni-koblenz.de . Meine Webseiten an der Uni Koblenz oder privat.
Version: $Revision: 0.78 $